Time;durP1;ratioP1;P1;durP2;ratioP2;P2;SDS_P1;SDS_P2;PMS_P1;PMS_P2;Temp;Humidity;BMP_temperature;BMP_pressure;BME280_temperature;BME280_humidity;BME280_pressure;Samples;Min_cycle;Max_cycle;Signal;HPM_P1;HPM_P2
2023/05/13 02:01:54;;;;;;;3.40;2.67;;;;;;;;;;4513615;28;20075;-74
2023/05/13 02:04:21;;;;;;;5.22;2.67;;;;;;;;;;4296040;33;20049;-74
2023/05/13 02:06:47;;;;;;;4.12;2.53;;;;;;;;;;4294048;33;20021;-73
2023/05/13 02:09:13;;;;;;;14.90;3.40;;;;;;;;;;4293157;33;20483;-86
2023/05/13 02:11:40;;;;;;;6.65;3.80;;;;;;;;;;4294284;33;20059;-74
2023/05/13 02:14:06;;;;;;;7.95;4.20;;;;;;;;;;4297244;33;20069;-75
2023/05/13 02:16:33;;;;;;;10.32;2.78;;;;;;;;;;4297089;33;20045;-73
2023/05/13 02:19:00;;;;;;;5.35;3.58;;;;;;;;;;4297155;33;20060;-75
2023/05/13 02:21:26;;;;;;;6.50;3.87;;;;;;;;;;4295014;33;20045;-76
2023/05/13 02:23:52;;;;;;;17.15;4.93;;;;;;;;;;4297198;33;20079;-74
2023/05/13 02:26:18;;;;;;;4.35;3.45;;;;;;;;;;4296897;33;20124;-74
2023/05/13 02:28:47;;;;;;;7.97;3.50;;;;;;;;;;4292224;33;20111;-74
2023/05/13 02:31:13;;;;;;;5.55;3.22;;;;;;;;;;4296975;33;20421;-74
2023/05/13 02:33:41;;;;;;;16.58;2.80;;;;;;;;;;4287538;33;20053;-75
2023/05/13 02:36:14;;;;;;;3.85;3.05;;;;;;;;;;4282465;33;20499;-74
2023/05/13 02:38:40;;;;;;;8.43;2.85;;;;;;;;;;4281506;33;20078;-76
2023/05/13 02:41:06;;;;;;;9.30;3.90;;;;;;;;;;4282763;33;20058;-73
2023/05/13 02:43:33;;;;;;;14.68;3.00;;;;;;;;;;4305560;33;20070;-74
2023/05/13 02:45:59;;;;;;;5.57;3.58;;;;;;;;;;4311851;33;20084;-74
2023/05/13 02:48:25;;;;;;;10.02;3.87;;;;;;;;;;4311376;33;20062;-75
2023/05/13 02:50:52;;;;;;;10.10;3.85;;;;;;;;;;4310643;33;20514;-74
2023/05/13 02:53:18;;;;;;;8.80;3.85;;;;;;;;;;4310692;33;20048;-75
2023/05/13 02:55:45;;;;;;;6.90;3.30;;;;;;;;;;4309299;33;20051;-74
2023/05/13 02:58:11;;;;;;;9.98;3.35;;;;;;;;;;4311571;33;20577;-77
2023/05/13 03:00:37;;;;;;;4.25;3.12;;;;;;;;;;4310329;33;20066;-75
2023/05/13 03:03:04;;;;;;;3.92;3.20;;;;;;;;;;4311821;33;20053;-76
2023/05/13 03:05:30;;;;;;;11.02;3.65;;;;;;;;;;4309777;33;20054;-77
2023/05/13 03:07:57;;;;;;;3.20;2.85;;;;;;;;;;4310895;33;20070;-74
2023/05/13 03:10:23;;;;;;;4.75;2.78;;;;;;;;;;4311197;33;20067;-74
2023/05/13 03:12:50;;;;;;;10.88;3.30;;;;;;;;;;4310893;33;20809;-74
2023/05/13 03:15:16;;;;;;;9.13;3.35;;;;;;;;;;4296099;33;20038;-74
2023/05/13 03:17:43;;;;;;;5.62;3.10;;;;;;;;;;4293505;33;20606;-76
2023/05/13 03:20:10;;;;;;;14.38;4.25;;;;;;;;;;4296661;33;20045;-74
2023/05/13 03:22:39;;;;;;;8.45;2.83;;;;;;;;;;4294748;33;20064;-75
2023/05/13 03:25:06;;;;;;;8.35;3.15;;;;;;;;;;4296515;33;20391;-88
2023/05/13 03:27:34;;;;;;;5.72;3.00;;;;;;;;;;4294771;33;20053;-74
2023/05/13 03:30:00;;;;;;;3.20;2.75;;;;;;;;;;4296758;33;20065;-74
2023/05/13 03:32:29;;;;;;;6.93;3.08;;;;;;;;;;4310742;33;20442;-74
2023/05/13 03:34:56;;;;;;;5.93;2.80;;;;;;;;;;4295779;33;20041;-74
2023/05/13 03:37:23;;;;;;;7.55;3.03;;;;;;;;;;4292573;33;20059;-73
2023/05/13 03:39:49;;;;;;;9.85;3.00;;;;;;;;;;4296687;33;20072;-75
2023/05/13 03:42:16;;;;;;;8.05;2.97;;;;;;;;;;4295354;33;20183;-73
2023/05/13 03:44:42;;;;;;;5.90;2.58;;;;;;;;;;4282436;33;20067;-74
2023/05/13 03:47:10;;;;;;;4.97;2.78;;;;;;;;;;4280009;33;20467;-79
2023/05/13 03:49:37;;;;;;;10.40;3.62;;;;;;;;;;4281318;33;20034;-75
2023/05/13 03:52:03;;;;;;;11.38;3.90;;;;;;;;;;4281600;33;20053;-75
2023/05/13 03:54:29;;;;;;;7.47;3.25;;;;;;;;;;4280615;33;20034;-76
2023/05/13 03:56:56;;;;;;;6.05;2.50;;;;;;;;;;4281743;33;20049;-74
2023/05/13 03:59:23;;;;;;;11.25;3.30;;;;;;;;;;4280247;33;20050;-78
2023/05/13 04:01:50;;;;;;;7.07;2.60;;;;;;;;;;4273117;33;20083;-74
2023/05/13 04:04:17;;;;;;;5.65;3.28;;;;;;;;;;4268754;33;20046;-73
2023/05/13 04:06:43;;;;;;;4.85;2.60;;;;;;;;;;4268007;33;20054;-75
2023/05/13 04:09:15;;;;;;;8.68;3.33;;;;;;;;;;4290160;33;20071;-86
2023/05/13 04:11:42;;;;;;;6.85;2.97;;;;;;;;;;4297613;33;20046;-72
2023/05/13 04:14:08;;;;;;;5.25;3.20;;;;;;;;;;4298362;33;20125;-74
2023/05/13 04:16:34;;;;;;;5.32;2.60;;;;;;;;;;4298655;33;20040;-75
2023/05/13 04:19:01;;;;;;;11.30;2.83;;;;;;;;;;4300101;33;20454;-74
2023/05/13 04:21:28;;;;;;;4.28;2.45;;;;;;;;;;4310352;33;20049;-85
2023/05/13 04:23:54;;;;;;;6.07;2.80;;;;;;;;;;4312546;33;20074;-74
2023/05/13 04:26:21;;;;;;;4.40;2.72;;;;;;;;;;4311283;33;20041;-77
2023/05/13 04:28:47;;;;;;;4.05;2.40;;;;;;;;;;4312138;33;20055;-73
2023/05/13 04:31:14;;;;;;;4.03;2.47;;;;;;;;;;4311659;33;20056;-75
2023/05/13 04:33:40;;;;;;;3.15;2.42;;;;;;;;;;4309654;33;20317;-74
2023/05/13 04:36:06;;;;;;;4.10;2.22;;;;;;;;;;4309359;33;20134;-78
2023/05/13 04:38:32;;;;;;;7.57;2.62;;;;;;;;;;4309009;33;20088;-74
2023/05/13 04:41:00;;;;;;;5.75;2.67;;;;;;;;;;4314605;33;20066;-75
2023/05/13 04:43:27;;;;;;;8.75;3.08;;;;;;;;;;4323851;33;20040;-77
2023/05/13 04:45:53;;;;;;;2.67;2.25;;;;;;;;;;4323458;33;20036;-75
2023/05/13 04:48:20;;;;;;;9.63;2.42;;;;;;;;;;4324933;33;20045;-75
2023/05/13 04:50:46;;;;;;;9.00;2.55;;;;;;;;;;4318688;33;20439;-73
2023/05/13 04:53:14;;;;;;;7.75;2.35;;;;;;;;;;4310062;33;20045;-73
2023/05/13 04:55:40;;;;;;;9.57;2.50;;;;;;;;;;4307716;33;20041;-84
2023/05/13 04:58:06;;;;;;;5.20;2.45;;;;;;;;;;4309460;33;20055;-74
2023/05/13 05:00:34;;;;;;;8.82;2.45;;;;;;;;;;4311177;33;20051;-73
2023/05/13 05:03:00;;;;;;;7.35;2.92;;;;;;;;;;4311750;33;20021;-73
2023/05/13 05:05:26;;;;;;;6.28;2.83;;;;;;;;;;4300141;33;20071;-74
2023/05/13 05:07:53;;;;;;;7.78;2.85;;;;;;;;;;4297655;33;20803;-85
2023/05/13 05:10:19;;;;;;;8.38;2.17;;;;;;;;;;4324272;33;20478;-72
2023/05/13 05:12:46;;;;;;;2.42;2.15;;;;;;;;;;4311318;33;20044;-73
2023/05/13 05:15:15;;;;;;;3.70;2.12;;;;;;;;;;4323173;33;20065;-73
2023/05/13 05:17:42;;;;;;;8.38;2.17;;;;;;;;;;4323768;33;20463;-74
2023/05/13 05:20:09;;;;;;;7.57;2.12;;;;;;;;;;4317097;33;20082;-75
2023/05/13 05:22:37;;;;;;;7.45;2.20;;;;;;;;;;4310757;33;20864;-73
2023/05/13 05:25:04;;;;;;;5.00;2.10;;;;;;;;;;4307872;33;20045;-72
2023/05/13 05:27:30;;;;;;;2.35;1.67;;;;;;;;;;4309091;33;20092;-75
2023/05/13 05:29:56;;;;;;;3.97;2.22;;;;;;;;;;4308836;33;20045;-84
2023/05/13 05:32:22;;;;;;;3.05;2.50;;;;;;;;;;4320762;33;20070;-72
2023/05/13 05:34:49;;;;;;;9.18;2.42;;;;;;;;;;4322043;33;20052;-73
2023/05/13 05:37:15;;;;;;;3.67;2.72;;;;;;;;;;4323726;33;20048;-75
2023/05/13 05:39:41;;;;;;;5.72;2.90;;;;;;;;;;4324048;33;20044;-74
2023/05/13 05:42:07;;;;;;;5.07;2.47;;;;;;;;;;4300730;33;20451;-86
2023/05/13 05:44:34;;;;;;;14.63;2.45;;;;;;;;;;4294537;33;20052;-75
2023/05/13 05:47:00;;;;;;;6.72;2.50;;;;;;;;;;4301478;33;20474;-75
2023/05/13 05:49:26;;;;;;;7.53;2.00;;;;;;;;;;4308818;33;20071;-74
2023/05/13 05:51:52;;;;;;;13.00;2.60;;;;;;;;;;4293837;33;20041;-73
2023/05/13 05:54:19;;;;;;;3.22;2.12;;;;;;;;;;4291561;33;20092;-74
2023/05/13 05:56:46;;;;;;;6.57;2.42;;;;;;;;;;4286662;33;20072;-76
2023/05/13 05:59:12;;;;;;;4.15;2.37;;;;;;;;;;4280935;33;20054;-73
2023/05/13 06:01:38;;;;;;;14.75;3.08;;;;;;;;;;4285082;33;20045;-74
2023/05/13 06:04:05;;;;;;;5.50;2.20;;;;;;;;;;4292613;33;20417;-87
2023/05/13 06:06:31;;;;;;;10.88;2.60;;;;;;;;;;4297933;33;20049;-77
2023/05/13 06:08:58;;;;;;;7.87;2.35;;;;;;;;;;4281930;33;20129;-74
2023/05/13 06:11:25;;;;;;;3.70;2.42;;;;;;;;;;4279541;33;20059;-76
2023/05/13 06:13:52;;;;;;;8.48;2.37;;;;;;;;;;4278154;33;20049;-74
2023/05/13 06:16:18;;;;;;;8.40;3.87;;;;;;;;;;4278074;33;20075;-89
2023/05/13 06:18:45;;;;;;;4.35;2.33;;;;;;;;;;4279218;33;20034;-74
2023/05/13 06:21:11;;;;;;;4.28;2.28;;;;;;;;;;4279603;33;20050;-74
2023/05/13 06:23:39;;;;;;;4.22;2.30;;;;;;;;;;4292984;33;20063;-74
2023/05/13 06:26:05;;;;;;;2.10;2.00;;;;;;;;;;4294622;33;20046;-74
2023/05/13 06:28:33;;;;;;;2.45;1.70;;;;;;;;;;4298675;33;20054;-80
2023/05/13 06:30:59;;;;;;;5.45;1.95;;;;;;;;;;4296753;33;20112;-75
2023/05/13 06:33:26;;;;;;;2.28;1.75;;;;;;;;;;4292090;33;20052;-74
2023/05/13 06:35:52;;;;;;;4.30;1.98;;;;;;;;;;4293470;33;20071;-77
2023/05/13 06:38:19;;;;;;;3.17;2.10;;;;;;;;;;4294699;33;20075;-73
2023/05/13 06:40:45;;;;;;;3.40;1.98;;;;;;;;;;4289266;33;20046;-76
2023/05/13 06:43:13;;;;;;;3.05;2.08;;;;;;;;;;4293334;33;20057;-77
2023/05/13 06:45:42;;;;;;;7.32;1.60;;;;;;;;;;4279002;33;20219;-76
2023/05/13 06:48:09;;;;;;;3.37;1.87;;;;;;;;;;4279033;33;20586;-76
2023/05/13 06:50:36;;;;;;;2.92;1.90;;;;;;;;;;4278065;33;20075;-74
2023/05/13 06:53:03;;;;;;;3.37;2.12;;;;;;;;;;4275825;33;20053;-75
2023/05/13 06:55:30;;;;;;;2.80;1.42;;;;;;;;;;4277872;33;20118;-74
2023/05/13 06:57:56;;;;;;;3.53;1.60;;;;;;;;;;4268904;33;20045;-73
2023/05/13 07:00:22;;;;;;;2.10;1.20;;;;;;;;;;4293272;33;20493;-73
2023/05/13 07:02:49;;;;;;;2.53;1.92;;;;;;;;;;4294823;33;20110;-80
2023/05/13 07:05:15;;;;;;;12.82;1.92;;;;;;;;;;4294584;33;20045;-76
2023/05/13 07:07:42;;;;;;;3.58;1.77;;;;;;;;;;4294691;33;20088;-75
2023/05/13 07:10:08;;;;;;;4.00;2.78;;;;;;;;;;4294517;33;20047;-77
2023/05/13 07:12:34;;;;;;;2.10;1.90;;;;;;;;;;4292010;33;20341;-77
2023/05/13 07:15:01;;;;;;;3.65;2.15;;;;;;;;;;4282553;33;20034;-75
2023/05/13 07:17:27;;;;;;;2.95;1.70;;;;;;;;;;4290791;33;20061;-75
2023/05/13 07:19:53;;;;;;;3.90;1.80;;;;;;;;;;4294550;33;20521;-75
2023/05/13 07:22:20;;;;;;;1.87;1.77;;;;;;;;;;4295422;33;20079;-77
2023/05/13 07:24:46;;;;;;;5.97;2.22;;;;;;;;;;4295905;33;20057;-77
2023/05/13 07:27:12;;;;;;;7.30;1.73;;;;;;;;;;4295692;33;20053;-75
2023/05/13 07:29:38;;;;;;;2.20;1.58;;;;;;;;;;4293979;33;20204;-74
2023/05/13 07:32:05;;;;;;;2.37;2.10;;;;;;;;;;4289125;33;20067;-74
2023/05/13 07:34:31;;;;;;;3.50;1.83;;;;;;;;;;4285838;33;20057;-76
2023/05/13 07:36:57;;;;;;;4.65;1.70;;;;;;;;;;4290163;33;20067;-75
2023/05/13 07:39:24;;;;;;;10.80;1.85;;;;;;;;;;4269788;33;20422;-84
2023/05/13 07:41:50;;;;;;;7.60;1.85;;;;;;;;;;4277932;33;20061;-72
2023/05/13 07:44:16;;;;;;;1.73;1.55;;;;;;;;;;4270162;33;20443;-77
2023/05/13 07:46:43;;;;;;;1.95;1.67;;;;;;;;;;4266458;33;20058;-74
2023/05/13 07:49:09;;;;;;;4.93;2.00;;;;;;;;;;4266421;33;20116;-74
2023/05/13 07:51:35;;;;;;;1.90;1.80;;;;;;;;;;4265078;33;20068;-85
2023/05/13 07:54:01;;;;;;;2.72;1.70;;;;;;;;;;4252407;33;20053;-73
2023/05/13 07:56:27;;;;;;;3.30;1.65;;;;;;;;;;4236797;33;20150;-74
2023/05/13 07:58:53;;;;;;;2.05;1.42;;;;;;;;;;4238421;33;20059;-73
2023/05/13 08:01:20;;;;;;;3.87;2.15;;;;;;;;;;4244488;33;20062;-76
2023/05/13 08:03:46;;;;;;;3.58;1.67;;;;;;;;;;4239559;33;20047;-80
2023/05/13 08:06:12;;;;;;;6.10;1.55;;;;;;;;;;4237329;33;20098;-74
2023/05/13 08:08:38;;;;;;;2.05;1.60;;;;;;;;;;4238774;33;20046;-78
2023/05/13 08:11:04;;;;;;;16.12;2.83;;;;;;;;;;4259418;33;20499;-78
2023/05/13 08:13:30;;;;;;;6.07;1.83;;;;;;;;;;4265846;33;20057;-76
2023/05/13 08:15:59;;;;;;;4.20;1.70;;;;;;;;;;4262247;33;20073;-77
2023/05/13 08:18:26;;;;;;;12.63;1.98;;;;;;;;;;4265499;33;20812;-77
2023/05/13 08:20:52;;;;;;;4.80;2.70;;;;;;;;;;4262606;33;20171;-75
2023/05/13 08:23:18;;;;;;;3.15;1.65;;;;;;;;;;4254270;33;20054;-76
2023/05/13 08:25:44;;;;;;;3.15;1.92;;;;;;;;;;4250014;33;20034;-75
2023/05/13 08:28:10;;;;;;;2.47;1.75;;;;;;;;;;4245354;33;20061;-74
2023/05/13 08:30:39;;;;;;;1.60;1.50;;;;;;;;;;4240954;33;20062;-76
2023/05/13 08:33:07;;;;;;;4.90;2.08;;;;;;;;;;4239571;33;20038;-75
2023/05/13 08:35:33;;;;;;;6.37;1.98;;;;;;;;;;4242097;33;20060;-76
2023/05/13 08:37:59;;;;;;;8.50;2.00;;;;;;;;;;4248002;33;20101;-78
2023/05/13 08:40:25;;;;;;;19.50;2.35;;;;;;;;;;4248684;33;20075;-77
2023/05/13 08:42:53;;;;;;;8.95;2.90;;;;;;;;;;4247725;33;20038;-76
2023/05/13 08:45:20;;;;;;;6.07;1.73;;;;;;;;;;4219883;33;20502;-74
2023/05/13 08:47:51;;;;;;;4.53;1.40;;;;;;;;;;4220176;33;20043;-78
2023/05/13 08:50:18;;;;;;;8.40;1.80;;;;;;;;;;4219756;34;20935;-74
2023/05/13 08:52:44;;;;;;;3.67;1.70;;;;;;;;;;4218266;33;20101;-77
2023/05/13 08:55:11;;;;;;;2.12;1.27;;;;;;;;;;4218357;34;20506;-74
2023/05/13 08:57:38;;;;;;;6.35;2.12;;;;;;;;;;4244800;33;20022;-74
2023/05/13 09:00:04;;;;;;;5.57;2.30;;;;;;;;;;4264091;33;20086;-83
2023/05/13 09:02:31;;;;;;;24.10;2.50;;;;;;;;;;4278604;33;20061;-76
2023/05/13 09:05:00;;;;;;;2.83;1.45;;;;;;;;;;4276817;33;20049;-74
2023/05/13 09:07:28;;;;;;;6.60;2.85;;;;;;;;;;4272289;33;20414;-80
2023/05/13 09:09:55;;;;;;;18.05;2.00;;;;;;;;;;4279349;33;20098;-76
2023/05/13 09:12:40;;;;;;;4.70;1.80;;;;;;;;;;4276461;33;20126;-79
2023/05/13 09:15:10;;;;;;;3.92;1.95;;;;;;;;;;4279711;33;20706;-77
2023/05/13 09:17:37;;;;;;;5.93;1.77;;;;;;;;;;4266655;33;20045;-78
2023/05/13 09:20:14;;;;;;;2.10;1.60;;;;;;;;;;4265720;33;20053;-81
2023/05/13 09:22:52;;;;;;;3.80;1.80;;;;;;;;;;4278794;33;20041;-75
2023/05/13 09:25:20;;;;;;;1.87;1.52;;;;;;;;;;4266040;33;20038;-77
2023/05/13 09:27:47;;;;;;;2.37;1.80;;;;;;;;;;4263949;33;20068;-80
2023/05/13 09:30:13;;;;;;;2.72;1.37;;;;;;;;;;4263409;33;20072;-77
2023/05/13 09:32:41;;;;;;;2.20;1.98;;;;;;;;;;4267049;33;20046;-75
2023/05/13 09:35:17;;;;;;;3.28;2.95;;;;;;;;;;4279927;33;20094;-77
2023/05/13 09:37:44;;;;;;;4.57;1.70;;;;;;;;;;4279196;33;20423;-80
2023/05/13 09:40:11;;;;;;;3.65;1.87;;;;;;;;;;4277060;33;20068;-76
2023/05/13 09:42:40;;;;;;;8.85;2.20;;;;;;;;;;4251740;33;20068;-77
2023/05/13 09:45:06;;;;;;;7.85;1.52;;;;;;;;;;4251730;33;20061;-77
2023/05/13 09:47:34;;;;;;;5.90;2.53;;;;;;;;;;4251381;33;20084;-76
2023/05/13 09:50:01;;;;;;;4.10;2.05;;;;;;;;;;4249815;33;20035;-78
2023/05/13 09:52:28;;;;;;;3.33;2.40;;;;;;;;;;4235794;33;20136;-77
2023/05/13 09:54:56;;;;;;;8.85;2.67;;;;;;;;;;4234838;33;20124;-78
2023/05/13 09:57:22;;;;;;;2.83;1.80;;;;;;;;;;4236978;33;20486;-77
2023/05/13 09:59:48;;;;;;;9.30;2.37;;;;;;;;;;4234950;33;20533;-81
2023/05/13 10:02:16;;;;;;;4.43;1.85;;;;;;;;;;4233642;33;20080;-76
2023/05/13 10:04:43;;;;;;;1.60;1.50;;;;;;;;;;4254864;33;20132;-75
2023/05/13 10:07:10;;;;;;;12.70;1.50;;;;;;;;;;4264966;33;20081;-76
2023/05/13 10:09:37;;;;;;;1.25;1.25;;;;;;;;;;4265578;33;20050;-75
2023/05/13 10:12:05;;;;;;;7.32;2.12;;;;;;;;;;4261478;33;20033;-81
2023/05/13 10:14:31;;;;;;;14.77;2.05;;;;;;;;;;4277560;33;21012;-75
2023/05/13 10:16:58;;;;;;;2.17;1.73;;;;;;;;;;4279766;33;20026;-75
2023/05/13 10:19:25;;;;;;;15.15;1.70;;;;;;;;;;4280287;33;20143;-76
2023/05/13 10:21:51;;;;;;;4.35;1.70;;;;;;;;;;4279075;33;20063;-75
2023/05/13 10:24:18;;;;;;;4.78;2.30;;;;;;;;;;4296752;33;20561;-79
2023/05/13 10:26:45;;;;;;;3.45;2.45;;;;;;;;;;4323472;33;20078;-76
2023/05/13 10:29:11;;;;;;;3.62;1.90;;;;;;;;;;4323345;33;20053;-76
2023/05/13 10:31:38;;;;;;;2.50;2.08;;;;;;;;;;4323021;33;20056;-76
2023/05/13 10:34:05;;;;;;;2.90;2.00;;;;;;;;;;4315687;33;20067;-77
2023/05/13 10:36:31;;;;;;;3.15;1.95;;;;;;;;;;4309447;33;20066;-80
2023/05/13 10:39:16;;;;;;;5.82;1.45;;;;;;;;;;4296508;33;20053;-76
2023/05/13 10:41:54;;;;;;;3.03;2.70;;;;;;;;;;4300947;33;20041;-75
2023/05/13 10:44:33;;;;;;;2.47;2.10;;;;;;;;;;4297563;33;20075;-75
2023/05/13 10:47:11;;;;;;;1.62;1.45;;;;;;;;;;4295046;33;20075;-75
2023/05/13 10:49:49;;;;;;;4.75;1.70;;;;;;;;;;4295600;33;20041;-81
2023/05/13 10:52:16;;;;;;;2.20;1.42;;;;;;;;;;4297509;33;20105;-76
2023/05/13 10:54:42;;;;;;;1.92;1.83;;;;;;;;;;4296131;33;20074;-77
2023/05/13 10:57:08;;;;;;;2.20;1.30;;;;;;;;;;4299003;33;20029;-76
2023/05/13 10:59:36;;;;;;;5.60;2.03;;;;;;;;;;4304890;33;20104;-81
2023/05/13 11:02:18;;;;;;;1.73;1.62;;;;;;;;;;4426677;28;20174;-75
2023/05/13 11:04:58;;;;;;;3.40;1.65;;;;;;;;;;4284193;33;20895;-74
2023/05/13 11:07:27;;;;;;;3.83;2.22;;;;;;;;;;4293401;33;20051;-74
2023/05/13 11:09:53;;;;;;;11.60;1.98;;;;;;;;;;4295121;33;20527;-76
2023/05/13 11:12:19;;;;;;;8.88;2.08;;;;;;;;;;4293946;33;20080;-75
2023/05/13 11:14:46;;;;;;;7.20;1.80;;;;;;;;;;4295752;33;20064;-74
2023/05/13 11:17:17;;;;;;;2.37;1.65;;;;;;;;;;4297088;33;20668;-73
2023/05/13 11:19:45;;;;;;;9.18;2.30;;;;;;;;;;4295888;33;20049;-74
2023/05/13 11:22:17;;;;;;;1.80;1.70;;;;;;;;;;4295852;33;20032;-86
2023/05/13 11:24:45;;;;;;;8.35;2.28;;;;;;;;;;4292549;33;20053;-74
2023/05/13 11:27:18;;;;;;;2.05;1.90;;;;;;;;;;4280866;33;20029;-74
2023/05/13 11:29:52;;;;;;;4.85;2.03;;;;;;;;;;4265849;33;20103;-77
2023/05/13 11:32:37;;;;;;;12.55;2.00;;;;;;;;;;4264795;33;20111;-76
2023/05/13 11:35:04;;;;;;;3.22;1.75;;;;;;;;;;4264551;33;20050;-75
2023/05/13 11:37:31;;;;;;;5.45;1.67;;;;;;;;;;4267269;33;20045;-75
2023/05/13 11:39:58;;;;;;;4.57;1.90;;;;;;;;;;4264532;33;20548;-75
2023/05/13 11:42:24;;;;;;;8.52;2.87;;;;;;;;;;4253167;33;20579;-76
2023/05/13 11:44:52;;;;;;;3.37;1.70;;;;;;;;;;4246353;33;20063;-77
2023/05/13 11:47:24;;;;;;;3.00;2.33;;;;;;;;;;4250207;33;20066;-74
2023/05/13 11:49:51;;;;;;;2.45;1.40;;;;;;;;;;4222745;33;20458;-83
2023/05/13 11:52:18;;;;;;;6.55;1.62;;;;;;;;;;4223522;33;20078;-76
2023/05/13 11:54:48;;;;;;;11.68;1.65;;;;;;;;;;4250918;33;20071;-73
2023/05/13 11:57:21;;;;;;;2.95;1.98;;;;;;;;;;4251547;33;20054;-74
2023/05/13 11:59:58;;;;;;;1.70;1.60;;;;;;;;;;4247822;33;20093;-75
2023/05/13 12:02:28;;;;;;;3.97;1.95;;;;;;;;;;4266204;33;20054;-72
2023/05/13 12:04:59;;;;;;;2.00;1.40;;;;;;;;;;4266163;33;20072;-74
2023/05/13 12:07:25;;;;;;;2.30;1.80;;;;;;;;;;4236583;33;20038;-74
2023/05/13 12:09:54;;;;;;;3.42;2.03;;;;;;;;;;4252531;33;20065;-73
2023/05/13 12:12:20;;;;;;;4.12;1.85;;;;;;;;;;4250674;33;20441;-77
2023/05/13 12:14:49;;;;;;;5.93;2.22;;;;;;;;;;4252316;33;20053;-73
2023/05/13 12:17:15;;;;;;;3.28;1.70;;;;;;;;;;4238699;33;20050;-83
2023/05/13 12:20:00;;;;;;;3.33;1.87;;;;;;;;;;4222391;33;20068;-73
2023/05/13 12:22:26;;;;;;;5.80;1.95;;;;;;;;;;4223212;33;20180;-77
2023/05/13 12:24:53;;;;;;;10.20;3.12;;;;;;;;;;4222703;33;20072;-73
2023/05/13 12:27:20;;;;;;;2.25;1.90;;;;;;;;;;4215978;33;20744;-79
2023/05/13 12:29:46;;;;;;;12.30;1.83;;;;;;;;;;4229594;33;20051;-76
2023/05/13 12:32:15;;;;;;;10.30;2.00;;;;;;;;;;4242960;33;20046;-74
2023/05/13 12:34:46;;;;;;;9.23;2.55;;;;;;;;;;4237709;33;20055;-74
2023/05/13 12:37:13;;;;;;;4.62;1.48;;;;;;;;;;4236544;33;20128;-79
2023/05/13 12:39:40;;;;;;;7.30;1.62;;;;;;;;;;4208811;34;20050;-74
2023/05/13 12:42:12;;;;;;;3.17;1.50;;;;;;;;;;4209449;34;20821;-76
2023/05/13 12:44:41;;;;;;;2.45;1.77;;;;;;;;;;4221667;33;20065;-74
2023/05/13 12:47:09;;;;;;;1.87;1.60;;;;;;;;;;4216643;33;20075;-81
2023/05/13 12:49:49;;;;;;;2.62;1.85;;;;;;;;;;4215908;33;20051;-74
2023/05/13 12:52:16;;;;;;;2.10;2.00;;;;;;;;;;4195382;34;20178;-74
2023/05/13 12:54:42;;;;;;;3.87;1.75;;;;;;;;;;4193767;34;20089;-74
2023/05/13 12:57:08;;;;;;;1.65;1.55;;;;;;;;;;4194653;34;20039;-84
2023/05/13 12:59:34;;;;;;;2.78;1.75;;;;;;;;;;4179928;34;20047;-73
2023/05/13 13:02:00;;;;;;;6.40;1.90;;;;;;;;;;4207365;34;20432;-76
2023/05/13 13:04:27;;;;;;;1.90;1.80;;;;;;;;;;4208465;34;20551;-74
2023/05/13 13:06:53;;;;;;;3.42;1.75;;;;;;;;;;4208285;34;20052;-75
2023/05/13 13:09:19;;;;;;;4.80;2.03;;;;;;;;;;4206348;34;20189;-76
2023/05/13 13:11:46;;;;;;;1.62;1.52;;;;;;;;;;4238836;33;21001;-76
2023/05/13 13:14:13;;;;;;;13.85;2.30;;;;;;;;;;4229326;33;20428;-75
2023/05/13 13:16:38;;;;;;;5.53;1.90;;;;;;;;;;4237060;33;20072;-76
2023/05/13 13:19:05;;;;;;;6.57;1.60;;;;;;;;;;4235572;33;20046;-77
2023/05/13 13:21:31;;;;;;;9.98;1.70;;;;;;;;;;4238295;33;20042;-74
2023/05/13 13:23:57;;;;;;;5.75;2.80;;;;;;;;;;4272153;33;20097;-78
2023/05/13 13:26:23;;;;;;;5.65;1.87;;;;;;;;;;4279648;33;20056;-74
2023/05/13 13:28:50;;;;;;;6.15;2.00;;;;;;;;;;4295508;33;20048;-74
2023/05/13 13:31:16;;;;;;;4.45;2.28;;;;;;;;;;4264534;33;20038;-77
2023/05/13 13:33:42;;;;;;;1.90;1.80;;;;;;;;;;4261688;33;20068;-74
2023/05/13 13:36:08;;;;;;;7.28;1.90;;;;;;;;;;4263187;33;20080;-73
2023/05/13 13:38:34;;;;;;;3.65;2.03;;;;;;;;;;4278356;33;20131;-74
2023/05/13 13:41:00;;;;;;;3.72;1.83;;;;;;;;;;4278650;33;20038;-74
2023/05/13 13:43:33;;;;;;;27.87;2.35;;;;;;;;;;4275119;33;20050;-79
2023/05/13 13:45:59;;;;;;;4.20;2.20;;;;;;;;;;4277600;33;20094;-74
2023/05/13 13:48:25;;;;;;;5.15;1.92;;;;;;;;;;4278687;33;20589;-76
2023/05/13 13:50:52;;;;;;;127.05;60.15;;;;;;;;;;4264227;33;20079;-73
2023/05/13 13:53:19;;;;;;;7.07;2.05;;;;;;;;;;4247982;33;20054;-76
2023/05/13 13:55:45;;;;;;;3.25;1.83;;;;;;;;;;4247042;33;20018;-83
2023/05/13 13:58:11;;;;;;;6.03;2.33;;;;;;;;;;4249260;33;20085;-73
2023/05/13 14:00:37;;;;;;;14.50;4.03;;;;;;;;;;4237762;33;20058;-74
2023/05/13 14:03:04;;;;;;;6.75;1.70;;;;;;;;;;4258000;33;20054;-74
2023/05/13 14:05:36;;;;;;;4.60;2.58;;;;;;;;;;4245519;33;20058;-76
2023/05/13 14:08:02;;;;;;;4.90;2.78;;;;;;;;;;4250505;33;20068;-75
2023/05/13 14:10:28;;;;;;;8.38;1.95;;;;;;;;;;4230152;33;20359;-73
2023/05/13 14:12:55;;;;;;;5.65;1.60;;;;;;;;;;4228088;33;20501;-77
2023/05/13 14:15:21;;;;;;;4.78;2.05;;;;;;;;;;4226253;33;20039;-75
2023/05/13 14:17:47;;;;;;;6.40;1.98;;;;;;;;;;4228857;33;20131;-78
2023/05/13 14:20:13;;;;;;;7.85;2.15;;;;;;;;;;4235519;33;20046;-82
2023/05/13 14:22:39;;;;;;;3.40;1.87;;;;;;;;;;4250595;33;20047;-74
2023/05/13 14:25:08;;;;;;;1.95;1.60;;;;;;;;;;4268582;33;20063;-75
2023/05/13 14:27:35;;;;;;;2.17;1.73;;;;;;;;;;4265129;33;20336;-76
2023/05/13 14:30:01;;;;;;;1.87;1.77;;;;;;;;;;4259256;33;20187;-83
2023/05/13 14:32:27;;;;;;;2.37;1.80;;;;;;;;;;4255024;33;20119;-74
2023/05/13 14:34:53;;;;;;;6.95;2.30;;;;;;;;;;4291838;33;20057;-79
2023/05/13 14:37:19;;;;;;;6.78;2.08;;;;;;;;;;4288464;33;20071;-77
2023/05/13 14:39:46;;;;;;;7.78;1.65;;;;;;;;;;4288791;33;20037;-74
2023/05/13 14:42:12;;;;;;;4.60;1.75;;;;;;;;;;4295038;33;20418;-82
2023/05/13 14:44:40;;;;;;;5.03;1.90;;;;;;;;;;4292516;33;20045;-77
2023/05/13 14:47:06;;;;;;;5.65;1.90;;;;;;;;;;4294064;33;20033;-73
2023/05/13 14:49:32;;;;;;;6.00;1.83;;;;;;;;;;4295576;33;20137;-77
2023/05/13 14:51:59;;;;;;;11.80;2.00;;;;;;;;;;4279596;33;20194;-80
2023/05/13 14:54:25;;;;;;;7.95;2.55;;;;;;;;;;4279842;33;20481;-76
2023/05/13 14:56:51;;;;;;;6.40;2.12;;;;;;;;;;4279447;33;20056;-78
2023/05/13 14:59:17;;;;;;;4.07;2.03;;;;;;;;;;4279430;33;20037;-76
2023/05/13 15:01:44;;;;;;;8.48;2.65;;;;;;;;;;4279550;33;20479;-78
2023/05/13 15:04:10;;;;;;;8.98;1.90;;;;;;;;;;4280075;33;20041;-77
2023/05/13 15:06:37;;;;;;;3.47;2.35;;;;;;;;;;4263260;33;20090;-77
2023/05/13 15:09:04;;;;;;;3.00;2.20;;;;;;;;;;4263171;33;20200;-83
2023/05/13 15:11:30;;;;;;;7.37;1.95;;;;;;;;;;4280912;33;20077;-75
2023/05/13 15:13:56;;;;;;;7.20;2.40;;;;;;;;;;4278151;33;20056;-76
2023/05/13 15:16:23;;;;;;;3.10;1.77;;;;;;;;;;4273506;33;20520;-77
2023/05/13 15:18:49;;;;;;;2.85;2.10;;;;;;;;;;4263672;33;20041;-77
2023/05/13 15:21:16;;;;;;;2.22;1.60;;;;;;;;;;4264262;33;20054;-78
2023/05/13 15:23:42;;;;;;;9.48;1.62;;;;;;;;;;4265330;33;20068;-74
2023/05/13 15:26:08;;;;;;;3.62;1.52;;;;;;;;;;4265878;33;20819;-74
2023/05/13 15:28:34;;;;;;;16.83;2.83;;;;;;;;;;4266542;33;20065;-76
2023/05/13 15:31:00;;;;;;;9.40;2.08;;;;;;;;;;4278576;33;20045;-80
2023/05/13 15:33:26;;;;;;;9.68;1.95;;;;;;;;;;4250700;33;20187;-75
2023/05/13 15:35:52;;;;;;;2.97;1.98;;;;;;;;;;4251150;33;20213;-76
2023/05/13 15:38:18;;;;;;;9.88;1.85;;;;;;;;;;4271826;33;20119;-76
2023/05/13 15:40:46;;;;;;;6.45;1.73;;;;;;;;;;4279205;33;20065;-77
2023/05/13 15:43:12;;;;;;;3.75;1.73;;;;;;;;;;4278292;33;20083;-77
2023/05/13 15:45:38;;;;;;;4.30;2.10;;;;;;;;;;4277362;33;20045;-76
2023/05/13 15:48:05;;;;;;;3.25;1.25;;;;;;;;;;4278544;33;20050;-77
2023/05/13 15:50:32;;;;;;;1.87;1.77;;;;;;;;;;4250308;33;20050;-77
2023/05/13 15:52:58;;;;;;;2.95;2.05;;;;;;;;;;4241173;33;20035;-78
2023/05/13 15:55:24;;;;;;;3.12;2.08;;;;;;;;;;4250266;33;20054;-77
2023/05/13 15:57:50;;;;;;;6.57;2.72;;;;;;;;;;4249478;33;20039;-74
2023/05/13 16:00:17;;;;;;;6.37;2.65;;;;;;;;;;4250784;33;20203;-76
2023/05/13 16:02:43;;;;;;;3.22;1.40;;;;;;;;;;4250093;33;20488;-77
2023/05/13 16:05:14;;;;;;;4.85;1.77;;;;;;;;;;4264434;33;20347;-76
2023/05/13 16:07:41;;;;;;;2.50;1.80;;;;;;;;;;4280935;33;20063;-78
2023/05/13 16:10:07;;;;;;;3.05;1.77;;;;;;;;;;4278502;33;21078;-77
2023/05/13 16:12:33;;;;;;;2.30;2.00;;;;;;;;;;4279633;33;20034;-78
2023/05/13 16:15:00;;;;;;;5.55;2.33;;;;;;;;;;4278404;33;20084;-75
2023/05/13 16:17:26;;;;;;;8.98;1.80;;;;;;;;;;4280159;33;20030;-77
2023/05/13 16:19:52;;;;;;;7.90;2.47;;;;;;;;;;4262466;33;20393;-76
2023/05/13 16:22:25;;;;;;;4.60;2.10;;;;;;;;;;4287913;33;20045;-78
2023/05/13 16:24:52;;;;;;;7.35;2.58;;;;;;;;;;4293472;33;20044;-77
2023/05/13 16:27:19;;;;;;;17.40;2.90;;;;;;;;;;4277129;33;20482;-78
2023/05/13 16:29:45;;;;;;;7.05;2.40;;;;;;;;;;4269551;33;20160;-77
2023/05/13 16:32:12;;;;;;;4.53;2.67;;;;;;;;;;4278839;33;20054;-89
2023/05/13 16:34:38;;;;;;;4.28;2.05;;;;;;;;;;4264498;33;20187;-73
2023/05/13 16:37:04;;;;;;;7.28;1.87;;;;;;;;;;4264169;33;20050;-76
2023/05/13 16:39:30;;;;;;;6.18;2.62;;;;;;;;;;4262627;33;20491;-76
2023/05/13 16:41:56;;;;;;;5.55;2.90;;;;;;;;;;4255015;33;20064;-76